sensor_id;sensor_type;location;lat;lon;timestamp;P1;durP1;ratioP1;P2;durP2;ratioP2
31378;SDS011;61664;48.112;11.662;2023-03-31T00:00:50;3.33;;;3.13;;
31378;SDS011;61664;48.112;11.662;2023-03-31T00:03:19;3.55;;;3.25;;
31378;SDS011;61664;48.112;11.662;2023-03-31T00:05:56;3.97;;;3.67;;
31378;SDS011;61664;48.112;11.662;2023-03-31T00:08:26;4.78;;;3.28;;
31378;SDS011;61664;48.112;11.662;2023-03-31T00:11:01;3.75;;;3.45;;
31378;SDS011;61664;48.112;11.662;2023-03-31T00:13:32;6.20;;;3.38;;
31378;SDS011;61664;48.112;11.662;2023-03-31T00:16:02;3.53;;;3.15;;
31378;SDS011;61664;48.112;11.662;2023-03-31T00:18:33;4.43;;;3.17;;
31378;SDS011;61664;48.112;11.662;2023-03-31T00:21:05;6.35;;;3.75;;
31378;SDS011;61664;48.112;11.662;2023-03-31T00:23:55;3.15;;;2.95;;
31378;SDS011;61664;48.112;11.662;2023-03-31T00:26:25;3.90;;;3.42;;
31378;SDS011;61664;48.112;11.662;2023-03-31T00:28:53;3.80;;;3.50;;
31378;SDS011;61664;48.112;11.662;2023-03-31T00:31:20;3.50;;;3.20;;
31378;SDS011;61664;48.112;11.662;2023-03-31T00:33:49;5.85;;;3.35;;
31378;SDS011;61664;48.112;11.662;2023-03-31T00:36:16;6.32;;;3.58;;
31378;SDS011;61664;48.112;11.662;2023-03-31T00:38:47;7.10;;;3.70;;
31378;SDS011;61664;48.112;11.662;2023-03-31T00:41:14;4.05;;;3.67;;
31378;SDS011;61664;48.112;11.662;2023-03-31T00:44:05;4.68;;;4.03;;
31378;SDS011;61664;48.112;11.662;2023-03-31T00:47:05;3.92;;;3.42;;
31378;SDS011;61664;48.112;11.662;2023-03-31T00:49:44;3.78;;;3.45;;
31378;SDS011;61664;48.112;11.662;2023-03-31T00:52:22;3.90;;;3.60;;
31378;SDS011;61664;48.112;11.662;2023-03-31T00:54:58;5.72;;;3.60;;
31378;SDS011;61664;48.112;11.662;2023-03-31T00:57:34;3.22;;;3.03;;
31378;SDS011;61664;48.112;11.662;2023-03-31T01:00:07;3.85;;;3.13;;
31378;SDS011;61664;48.112;11.662;2023-03-31T01:02:41;3.35;;;3.15;;
31378;SDS011;61664;48.112;11.662;2023-03-31T01:05:18;6.70;;;4.13;;
31378;SDS011;61664;48.112;11.662;2023-03-31T01:07:49;3.60;;;3.30;;
31378;SDS011;61664;48.112;11.662;2023-03-31T01:10:19;4.40;;;3.88;;
31378;SDS011;61664;48.112;11.662;2023-03-31T01:12:49;4.18;;;3.80;;
31378;SDS011;61664;48.112;11.662;2023-03-31T01:15:20;3.75;;;3.45;;
31378;SDS011;61664;48.112;11.662;2023-03-31T01:17:48;3.33;;;3.13;;
31378;SDS011;61664;48.112;11.662;2023-03-31T01:41:57;3.65;;;3.13;;
31378;SDS011;61664;48.112;11.662;2023-03-31T01:44:42;3.38;;;3.08;;
31378;SDS011;61664;48.112;11.662;2023-03-31T01:50:07;4.50;;;3.20;;
31378;SDS011;61664;48.112;11.662;2023-03-31T01:53:04;4.45;;;4.10;;
31378;SDS011;61664;48.112;11.662;2023-03-31T01:56:01;3.58;;;3.28;;
31378;SDS011;61664;48.112;11.662;2023-03-31T02:02:15;5.03;;;3.90;;
31378;SDS011;61664;48.112;11.662;2023-03-31T02:04:48;4.28;;;3.92;;
31378;SDS011;61664;48.112;11.662;2023-03-31T02:07:23;3.72;;;3.42;;
31378;SDS011;61664;48.112;11.662;2023-03-31T02:10:02;5.13;;;3.67;;
31378;SDS011;61664;48.112;11.662;2023-03-31T02:12:34;6.15;;;3.78;;
31378;SDS011;61664;48.112;11.662;2023-03-31T02:15:06;4.22;;;3.65;;
31378;SDS011;61664;48.112;11.662;2023-03-31T02:17:41;6.32;;;4.05;;
31378;SDS011;61664;48.112;11.662;2023-03-31T02:20:13;3.42;;;3.13;;
31378;SDS011;61664;48.112;11.662;2023-03-31T02:22:45;3.60;;;3.35;;
31378;SDS011;61664;48.112;11.662;2023-03-31T02:25:18;6.25;;;3.72;;
31378;SDS011;61664;48.112;11.662;2023-03-31T02:27:54;3.70;;;3.40;;
31378;SDS011;61664;48.112;11.662;2023-03-31T02:30:28;3.75;;;3.38;;
31378;SDS011;61664;48.112;11.662;2023-03-31T02:33:47;4.53;;;3.50;;
31378;SDS011;61664;48.112;11.662;2023-03-31T02:36:15;4.70;;;3.65;;
31378;SDS011;61664;48.112;11.662;2023-03-31T02:41:44;4.30;;;3.72;;
31378;SDS011;61664;48.112;11.662;2023-03-31T02:44:11;5.20;;;4.43;;
31378;SDS011;61664;48.112;11.662;2023-03-31T02:46:39;4.35;;;3.38;;
31378;SDS011;61664;48.112;11.662;2023-03-31T02:49:06;3.97;;;3.65;;
31378;SDS011;61664;48.112;11.662;2023-03-31T03:01:02;4.40;;;3.38;;
31378;SDS011;61664;48.112;11.662;2023-03-31T03:06:35;5.22;;;3.67;;
31378;SDS011;61664;48.112;11.662;2023-03-31T03:09:33;6.07;;;3.78;;
31378;SDS011;61664;48.112;11.662;2023-03-31T03:15:31;3.55;;;3.22;;
31378;SDS011;61664;48.112;11.662;2023-03-31T03:18:06;3.70;;;3.35;;
31378;SDS011;61664;48.112;11.662;2023-03-31T03:20:33;4.50;;;2.88;;
31378;SDS011;61664;48.112;11.662;2023-03-31T03:23:01;3.80;;;3.47;;
31378;SDS011;61664;48.112;11.662;2023-03-31T03:25:28;3.78;;;3.20;;
31378;SDS011;61664;48.112;11.662;2023-03-31T03:27:55;5.20;;;3.45;;
31378;SDS011;61664;48.112;11.662;2023-03-31T03:30:22;4.00;;;3.70;;
31378;SDS011;61664;48.112;11.662;2023-03-31T03:32:49;4.30;;;3.10;;
31378;SDS011;61664;48.112;11.662;2023-03-31T03:35:16;5.30;;;3.83;;
31378;SDS011;61664;48.112;11.662;2023-03-31T03:37:43;5.35;;;3.83;;
31378;SDS011;61664;48.112;11.662;2023-03-31T03:40:10;5.82;;;3.78;;
31378;SDS011;61664;48.112;11.662;2023-03-31T03:42:37;6.55;;;3.53;;
31378;SDS011;61664;48.112;11.662;2023-03-31T03:45:04;3.85;;;3.50;;
31378;SDS011;61664;48.112;11.662;2023-03-31T03:47:32;4.47;;;3.47;;
31378;SDS011;61664;48.112;11.662;2023-03-31T03:49:59;4.80;;;3.47;;
31378;SDS011;61664;48.112;11.662;2023-03-31T03:52:27;6.07;;;3.60;;
31378;SDS011;61664;48.112;11.662;2023-03-31T03:54:55;4.05;;;3.72;;
31378;SDS011;61664;48.112;11.662;2023-03-31T03:57:21;4.25;;;3.85;;
31378;SDS011;61664;48.112;11.662;2023-03-31T03:59:48;4.65;;;4.07;;
31378;SDS011;61664;48.112;11.662;2023-03-31T04:02:15;3.90;;;3.60;;
31378;SDS011;61664;48.112;11.662;2023-03-31T04:04:42;4.68;;;3.92;;
31378;SDS011;61664;48.112;11.662;2023-03-31T04:07:09;4.03;;;3.63;;
31378;SDS011;61664;48.112;11.662;2023-03-31T04:09:36;5.85;;;3.38;;
31378;SDS011;61664;48.112;11.662;2023-03-31T04:12:03;4.60;;;3.22;;
31378;SDS011;61664;48.112;11.662;2023-03-31T04:14:30;6.05;;;4.00;;
31378;SDS011;61664;48.112;11.662;2023-03-31T04:16:57;4.68;;;3.70;;
31378;SDS011;61664;48.112;11.662;2023-03-31T04:19:23;3.90;;;3.50;;
31378;SDS011;61664;48.112;11.662;2023-03-31T04:21:51;5.30;;;3.53;;
31378;SDS011;61664;48.112;11.662;2023-03-31T04:24:28;5.85;;;3.38;;
31378;SDS011;61664;48.112;11.662;2023-03-31T04:26:59;4.75;;;3.90;;
31378;SDS011;61664;48.112;11.662;2023-03-31T04:29:28;4.63;;;3.83;;
31378;SDS011;61664;48.112;11.662;2023-03-31T04:31:59;5.30;;;3.75;;
31378;SDS011;61664;48.112;11.662;2023-03-31T04:34:26;7.22;;;4.32;;
31378;SDS011;61664;48.112;11.662;2023-03-31T04:37:00;4.68;;;4.15;;
31378;SDS011;61664;48.112;11.662;2023-03-31T04:39:28;5.35;;;4.32;;
31378;SDS011;61664;48.112;11.662;2023-03-31T04:41:56;4.38;;;3.92;;
31378;SDS011;61664;48.112;11.662;2023-03-31T04:44:25;4.60;;;4.20;;
31378;SDS011;61664;48.112;11.662;2023-03-31T04:46:53;5.35;;;4.35;;
31378;SDS011;61664;48.112;11.662;2023-03-31T04:49:20;5.55;;;4.18;;
31378;SDS011;61664;48.112;11.662;2023-03-31T04:51:48;4.50;;;3.22;;
31378;SDS011;61664;48.112;11.662;2023-03-31T04:54:15;4.00;;;3.65;;
31378;SDS011;61664;48.112;11.662;2023-03-31T04:56:42;4.10;;;3.70;;
31378;SDS011;61664;48.112;11.662;2023-03-31T04:59:09;4.47;;;3.70;;
31378;SDS011;61664;48.112;11.662;2023-03-31T05:01:36;4.35;;;3.85;;
31378;SDS011;61664;48.112;11.662;2023-03-31T05:04:03;6.38;;;4.72;;
31378;SDS011;61664;48.112;11.662;2023-03-31T05:06:31;4.13;;;3.72;;
31378;SDS011;61664;48.112;11.662;2023-03-31T05:08:58;4.65;;;4.18;;
31378;SDS011;61664;48.112;11.662;2023-03-31T05:11:25;4.47;;;3.78;;
31378;SDS011;61664;48.112;11.662;2023-03-31T05:13:52;4.32;;;3.92;;
31378;SDS011;61664;48.112;11.662;2023-03-31T05:16:19;4.03;;;3.72;;
31378;SDS011;61664;48.112;11.662;2023-03-31T05:18:46;5.00;;;4.38;;
31378;SDS011;61664;48.112;11.662;2023-03-31T05:21:18;3.90;;;3.60;;
31378;SDS011;61664;48.112;11.662;2023-03-31T05:23:46;5.60;;;3.85;;
31378;SDS011;61664;48.112;11.662;2023-03-31T05:26:14;4.72;;;4.32;;
31378;SDS011;61664;48.112;11.662;2023-03-31T05:28:41;4.45;;;3.90;;
31378;SDS011;61664;48.112;11.662;2023-03-31T05:31:10;4.25;;;3.92;;
31378;SDS011;61664;48.112;11.662;2023-03-31T05:33:38;4.68;;;4.18;;
31378;SDS011;61664;48.112;11.662;2023-03-31T05:36:11;4.15;;;3.85;;
31378;SDS011;61664;48.112;11.662;2023-03-31T05:38:42;4.28;;;3.40;;
31378;SDS011;61664;48.112;11.662;2023-03-31T05:41:09;4.65;;;3.97;;
31378;SDS011;61664;48.112;11.662;2023-03-31T05:43:37;5.47;;;4.32;;
31378;SDS011;61664;48.112;11.662;2023-03-31T05:46:05;4.80;;;4.10;;
31378;SDS011;61664;48.112;11.662;2023-03-31T05:51:03;6.05;;;3.72;;
31378;SDS011;61664;48.112;11.662;2023-03-31T05:53:30;4.35;;;3.90;;
31378;SDS011;61664;48.112;11.662;2023-03-31T05:55:58;4.40;;;3.85;;
31378;SDS011;61664;48.112;11.662;2023-03-31T05:58:32;5.32;;;4.15;;
31378;SDS011;61664;48.112;11.662;2023-03-31T06:03:33;4.43;;;4.07;;
31378;SDS011;61664;48.112;11.662;2023-03-31T06:06:03;4.43;;;4.00;;
31378;SDS011;61664;48.112;11.662;2023-03-31T06:08:31;5.05;;;4.10;;
31378;SDS011;61664;48.112;11.662;2023-03-31T06:10:58;4.25;;;3.83;;
31378;SDS011;61664;48.112;11.662;2023-03-31T06:13:25;4.43;;;4.07;;
31378;SDS011;61664;48.112;11.662;2023-03-31T06:15:56;5.47;;;4.07;;
31378;SDS011;61664;48.112;11.662;2023-03-31T06:18:28;5.88;;;4.25;;
31378;SDS011;61664;48.112;11.662;2023-03-31T06:20:58;4.95;;;4.55;;
31378;SDS011;61664;48.112;11.662;2023-03-31T06:23:25;4.78;;;4.20;;
31378;SDS011;61664;48.112;11.662;2023-03-31T06:25:52;4.38;;;3.45;;
31378;SDS011;61664;48.112;11.662;2023-03-31T06:28:20;4.20;;;3.75;;
31378;SDS011;61664;48.112;11.662;2023-03-31T06:30:47;6.22;;;4.55;;
31378;SDS011;61664;48.112;11.662;2023-03-31T06:33:13;4.15;;;3.75;;
31378;SDS011;61664;48.112;11.662;2023-03-31T06:35:41;4.55;;;3.50;;
31378;SDS011;61664;48.112;11.662;2023-03-31T06:38:08;3.60;;;3.35;;
31378;SDS011;61664;48.112;11.662;2023-03-31T06:40:36;3.80;;;2.88;;
31378;SDS011;61664;48.112;11.662;2023-03-31T06:43:02;5.35;;;3.85;;
31378;SDS011;61664;48.112;11.662;2023-03-31T06:45:29;3.08;;;2.88;;
31378;SDS011;61664;48.112;11.662;2023-03-31T06:47:56;4.72;;;3.88;;
31378;SDS011;61664;48.112;11.662;2023-03-31T06:50:23;4.15;;;3.35;;
31378;SDS011;61664;48.112;11.662;2023-03-31T06:52:50;5.18;;;3.95;;
31378;SDS011;61664;48.112;11.662;2023-03-31T06:55:20;3.05;;;2.85;;
31378;SDS011;61664;48.112;11.662;2023-03-31T06:57:47;3.20;;;3.00;;
31378;SDS011;61664;48.112;11.662;2023-03-31T07:00:14;3.42;;;3.08;;
31378;SDS011;61664;48.112;11.662;2023-03-31T07:02:41;3.20;;;2.90;;
31378;SDS011;61664;48.112;11.662;2023-03-31T07:05:08;3.30;;;3.00;;
31378;SDS011;61664;48.112;11.662;2023-03-31T07:07:36;3.60;;;3.30;;
31378;SDS011;61664;48.112;11.662;2023-03-31T07:10:03;2.90;;;2.70;;
31378;SDS011;61664;48.112;11.662;2023-03-31T07:12:33;3.08;;;2.88;;
31378;SDS011;61664;48.112;11.662;2023-03-31T07:15:00;3.60;;;3.30;;
31378;SDS011;61664;48.112;11.662;2023-03-31T07:17:27;2.83;;;2.63;;
31378;SDS011;61664;48.112;11.662;2023-03-31T07:19:54;4.60;;;3.08;;
31378;SDS011;61664;48.112;11.662;2023-03-31T07:22:21;3.03;;;2.83;;
31378;SDS011;61664;48.112;11.662;2023-03-31T07:24:48;3.80;;;3.50;;
31378;SDS011;61664;48.112;11.662;2023-03-31T07:27:15;3.08;;;2.65;;
31378;SDS011;61664;48.112;11.662;2023-03-31T07:29:42;3.88;;;3.58;;
31378;SDS011;61664;48.112;11.662;2023-03-31T07:32:08;5.63;;;3.47;;
31378;SDS011;61664;48.112;11.662;2023-03-31T07:34:35;3.97;;;3.58;;
31378;SDS011;61664;48.112;11.662;2023-03-31T07:37:03;3.80;;;3.50;;
31378;SDS011;61664;48.112;11.662;2023-03-31T07:39:30;4.75;;;3.80;;
31378;SDS011;61664;48.112;11.662;2023-03-31T07:41:57;3.67;;;3.38;;
31378;SDS011;61664;48.112;11.662;2023-03-31T07:44:24;4.00;;;3.47;;
31378;SDS011;61664;48.112;11.662;2023-03-31T07:46:51;4.18;;;3.47;;
31378;SDS011;61664;48.112;11.662;2023-03-31T07:49:18;3.47;;;3.17;;
31378;SDS011;61664;48.112;11.662;2023-03-31T07:51:45;6.45;;;3.72;;
31378;SDS011;61664;48.112;11.662;2023-03-31T07:54:11;4.28;;;3.60;;
31378;SDS011;61664;48.112;11.662;2023-03-31T07:56:38;4.93;;;4.00;;
31378;SDS011;61664;48.112;11.662;2023-03-31T07:59:05;3.63;;;3.42;;
31378;SDS011;61664;48.112;11.662;2023-03-31T08:01:32;4.55;;;3.75;;
31378;SDS011;61664;48.112;11.662;2023-03-31T08:04:00;4.60;;;4.22;;
31378;SDS011;61664;48.112;11.662;2023-03-31T08:06:27;8.38;;;4.55;;
31378;SDS011;61664;48.112;11.662;2023-03-31T08:08:55;4.72;;;4.18;;
31378;SDS011;61664;48.112;11.662;2023-03-31T08:11:23;8.75;;;4.20;;
31378;SDS011;61664;48.112;11.662;2023-03-31T08:13:51;5.07;;;4.20;;
31378;SDS011;61664;48.112;11.662;2023-03-31T08:16:18;4.65;;;4.10;;
31378;SDS011;61664;48.112;11.662;2023-03-31T08:18:45;3.70;;;3.45;;
31378;SDS011;61664;48.112;11.662;2023-03-31T08:21:12;5.72;;;3.97;;
31378;SDS011;61664;48.112;11.662;2023-03-31T08:23:39;4.40;;;3.50;;
31378;SDS011;61664;48.112;11.662;2023-03-31T08:26:07;4.57;;;4.18;;
31378;SDS011;61664;48.112;11.662;2023-03-31T08:28:36;5.22;;;4.30;;
31378;SDS011;61664;48.112;11.662;2023-03-31T08:31:06;3.70;;;3.38;;
31378;SDS011;61664;48.112;11.662;2023-03-31T08:33:35;4.00;;;3.63;;
31378;SDS011;61664;48.112;11.662;2023-03-31T08:36:03;4.03;;;3.50;;
31378;SDS011;61664;48.112;11.662;2023-03-31T08:38:37;5.43;;;3.92;;
31378;SDS011;61664;48.112;11.662;2023-03-31T08:41:11;5.22;;;3.65;;
31378;SDS011;61664;48.112;11.662;2023-03-31T08:43:56;5.00;;;3.90;;
31378;SDS011;61664;48.112;11.662;2023-03-31T08:48:56;4.93;;;3.22;;
31378;SDS011;61664;48.112;11.662;2023-03-31T08:51:44;10.48;;;4.45;;
31378;SDS011;61664;48.112;11.662;2023-03-31T08:54:29;6.78;;;4.07;;
31378;SDS011;61664;48.112;11.662;2023-03-31T08:57:01;7.65;;;4.38;;
31378;SDS011;61664;48.112;11.662;2023-03-31T08:59:35;5.60;;;4.47;;
31378;SDS011;61664;48.112;11.662;2023-03-31T09:14:40;3.03;;;2.72;;
31378;SDS011;61664;48.112;11.662;2023-03-31T09:17:28;3.53;;;3.17;;
31378;SDS011;61664;48.112;11.662;2023-03-31T09:20:17;2.70;;;2.50;;
31378;SDS011;61664;48.112;11.662;2023-03-31T09:26:02;3.58;;;3.13;;
31378;SDS011;61664;48.112;11.662;2023-03-31T09:28:34;3.47;;;3.05;;
31378;SDS011;61664;48.112;11.662;2023-03-31T09:31:12;3.45;;;3.15;;
31378;SDS011;61664;48.112;11.662;2023-03-31T09:33:46;3.42;;;3.17;;
31378;SDS011;61664;48.112;11.662;2023-03-31T09:36:18;3.88;;;3.13;;
31378;SDS011;61664;48.112;11.662;2023-03-31T09:38:49;3.28;;;2.97;;
31378;SDS011;61664;48.112;11.662;2023-03-31T09:41:17;4.03;;;3.20;;
31378;SDS011;61664;48.112;11.662;2023-03-31T09:43:45;3.55;;;2.72;;
31378;SDS011;61664;48.112;11.662;2023-03-31T09:46:25;4.63;;;2.20;;
31378;SDS011;61664;48.112;11.662;2023-03-31T09:49:01;2.78;;;2.58;;
31378;SDS011;61664;48.112;11.662;2023-03-31T09:51:36;2.78;;;2.13;;
31378;SDS011;61664;48.112;11.662;2023-03-31T09:54:14;2.75;;;2.13;;
31378;SDS011;61664;48.112;11.662;2023-03-31T09:56:54;2.00;;;1.73;;
31378;SDS011;61664;48.112;11.662;2023-03-31T09:59:31;2.00;;;1.90;;
31378;SDS011;61664;48.112;11.662;2023-03-31T10:02:05;2.38;;;1.92;;
31378;SDS011;61664;48.112;11.662;2023-03-31T10:05:04;2.08;;;1.85;;
31378;SDS011;61664;48.112;11.662;2023-03-31T10:07:33;5.85;;;2.15;;
31378;SDS011;61664;48.112;11.662;2023-03-31T10:10:01;2.42;;;2.22;;
31378;SDS011;61664;48.112;11.662;2023-03-31T10:12:28;4.30;;;2.58;;
31378;SDS011;61664;48.112;11.662;2023-03-31T10:15:19;2.30;;;2.10;;
31378;SDS011;61664;48.112;11.662;2023-03-31T10:17:51;2.45;;;2.25;;
31378;SDS011;61664;48.112;11.662;2023-03-31T10:20:29;2.75;;;2.35;;
31378;SDS011;61664;48.112;11.662;2023-03-31T10:23:04;3.08;;;2.88;;
31378;SDS011;61664;48.112;11.662;2023-03-31T10:25:43;2.80;;;2.60;;
31378;SDS011;61664;48.112;11.662;2023-03-31T10:28:14;1.80;;;1.70;;
31378;SDS011;61664;48.112;11.662;2023-03-31T10:30:49;1.80;;;1.70;;
31378;SDS011;61664;48.112;11.662;2023-03-31T10:33:23;2.78;;;2.10;;
31378;SDS011;61664;48.112;11.662;2023-03-31T10:36:01;2.25;;;2.03;;
31378;SDS011;61664;48.112;11.662;2023-03-31T10:38:43;2.83;;;1.83;;
31378;SDS011;61664;48.112;11.662;2023-03-31T10:41:11;3.67;;;2.58;;
31378;SDS011;61664;48.112;11.662;2023-03-31T10:43:51;2.33;;;2.13;;
31378;SDS011;61664;48.112;11.662;2023-03-31T10:46:40;3.38;;;1.98;;
31378;SDS011;61664;48.112;11.662;2023-03-31T10:51:58;2.03;;;1.88;;
31378;SDS011;61664;48.112;11.662;2023-03-31T10:54:29;2.03;;;1.92;;
31378;SDS011;61664;48.112;11.662;2023-03-31T10:56:59;2.63;;;1.80;;
31378;SDS011;61664;48.112;11.662;2023-03-31T11:02:09;2.83;;;2.30;;
31378;SDS011;61664;48.112;11.662;2023-03-31T11:11:01;11.93;;;9.77;;
31378;SDS011;61664;48.112;11.662;2023-03-31T11:16:39;2.92;;;2.72;;
31378;SDS011;61664;48.112;11.662;2023-03-31T11:22:51;4.13;;;2.47;;
31378;SDS011;61664;48.112;11.662;2023-03-31T11:25:33;3.40;;;2.60;;
31378;SDS011;61664;48.112;11.662;2023-03-31T11:31:22;3.25;;;2.42;;
31378;SDS011;61664;48.112;11.662;2023-03-31T11:42:28;0.77;;;0.60;;
31378;SDS011;61664;48.112;11.662;2023-03-31T11:45:16;1.83;;;0.82;;
31378;SDS011;61664;48.112;11.662;2023-03-31T11:48:14;2.00;;;0.82;;
31378;SDS011;61664;48.112;11.662;2023-03-31T11:50:51;0.60;;;0.60;;
31378;SDS011;61664;48.112;11.662;2023-03-31T11:53:22;1.00;;;0.65;;
31378;SDS011;61664;48.112;11.662;2023-03-31T11:55:56;0.90;;;0.70;;
31378;SDS011;61664;48.112;11.662;2023-03-31T12:01:07;1.95;;;0.77;;
31378;SDS011;61664;48.112;11.662;2023-03-31T12:03:39;0.50;;;0.50;;
31378;SDS011;61664;48.112;11.662;2023-03-31T12:06:18;0.90;;;0.80;;
31378;SDS011;61664;48.112;11.662;2023-03-31T12:14:47;0.80;;;0.80;;
31378;SDS011;61664;48.112;11.662;2023-03-31T12:17:22;1.45;;;0.70;;
31378;SDS011;61664;48.112;11.662;2023-03-31T12:19:53;2.03;;;1.00;;
31378;SDS011;61664;48.112;11.662;2023-03-31T12:22:33;1.23;;;0.80;;
31378;SDS011;61664;48.112;11.662;2023-03-31T12:25:18;1.50;;;0.90;;
31378;SDS011;61664;48.112;11.662;2023-03-31T12:27:48;1.35;;;0.90;;
31378;SDS011;61664;48.112;11.662;2023-03-31T12:30:19;2.95;;;1.45;;
31378;SDS011;61664;48.112;11.662;2023-03-31T12:38:35;1.50;;;0.73;;
31378;SDS011;61664;48.112;11.662;2023-03-31T12:41:23;1.60;;;0.80;;
31378;SDS011;61664;48.112;11.662;2023-03-31T12:53:38;0.63;;;0.63;;
31378;SDS011;61664;48.112;11.662;2023-03-31T12:55:56;1.65;;;1.00;;
31378;SDS011;61664;48.112;11.662;2023-03-31T13:01:03;1.50;;;0.95;;
31378;SDS011;61664;48.112;11.662;2023-03-31T13:03:42;1.75;;;1.42;;
31378;SDS011;61664;48.112;11.662;2023-03-31T13:08:57;1.95;;;1.20;;
31378;SDS011;61664;48.112;11.662;2023-03-31T13:11:37;1.67;;;1.10;;
31378;SDS011;61664;48.112;11.662;2023-03-31T13:14:13;0.90;;;0.90;;
31378;SDS011;61664;48.112;11.662;2023-03-31T13:16:47;2.13;;;0.68;;
31378;SDS011;61664;48.112;11.662;2023-03-31T13:19:27;0.55;;;0.40;;
31378;SDS011;61664;48.112;11.662;2023-03-31T13:22:02;4.00;;;0.60;;
31378;SDS011;61664;48.112;11.662;2023-03-31T13:24:31;1.58;;;0.60;;
31378;SDS011;61664;48.112;11.662;2023-03-31T13:30:58;0.82;;;0.40;;
31378;SDS011;61664;48.112;11.662;2023-03-31T13:35:56;1.58;;;0.40;;
31378;SDS011;61664;48.112;11.662;2023-03-31T14:08:56;2.80;;;0.30;;
31378;SDS011;61664;48.112;11.662;2023-03-31T14:11:35;0.50;;;0.50;;
31378;SDS011;61664;48.112;11.662;2023-03-31T14:16:31;0.40;;;0.30;;
31378;SDS011;61664;48.112;11.662;2023-03-31T14:21:50;0.90;;;0.60;;
31378;SDS011;61664;48.112;11.662;2023-03-31T14:24:36;0.82;;;0.63;;
31378;SDS011;61664;48.112;11.662;2023-03-31T14:27:48;1.42;;;0.60;;
31378;SDS011;61664;48.112;11.662;2023-03-31T14:33:34;3.10;;;0.73;;
31378;SDS011;61664;48.112;11.662;2023-03-31T14:39:05;1.15;;;0.60;;
31378;SDS011;61664;48.112;11.662;2023-03-31T14:41:36;0.57;;;0.55;;
31378;SDS011;61664;48.112;11.662;2023-03-31T14:44:05;0.88;;;0.88;;
31378;SDS011;61664;48.112;11.662;2023-03-31T14:46:38;1.08;;;0.70;;
31378;SDS011;61664;48.112;11.662;2023-03-31T14:49:17;0.77;;;0.77;;
31378;SDS011;61664;48.112;11.662;2023-03-31T14:51:57;1.23;;;0.80;;
31378;SDS011;61664;48.112;11.662;2023-03-31T14:54:34;0.63;;;0.40;;
31378;SDS011;61664;48.112;11.662;2023-03-31T14:57:03;0.50;;;0.30;;
31378;SDS011;61664;48.112;11.662;2023-03-31T14:59:32;0.35;;;0.32;;
31378;SDS011;61664;48.112;11.662;2023-03-31T15:02:02;0.30;;;0.30;;
31378;SDS011;61664;48.112;11.662;2023-03-31T15:04:31;0.40;;;0.30;;
31378;SDS011;61664;48.112;11.662;2023-03-31T15:07:10;0.77;;;0.30;;
31378;SDS011;61664;48.112;11.662;2023-03-31T15:09:38;0.93;;;0.50;;
31378;SDS011;61664;48.112;11.662;2023-03-31T15:12:14;0.73;;;0.50;;
31378;SDS011;61664;48.112;11.662;2023-03-31T15:14:47;0.65;;;0.40;;
31378;SDS011;61664;48.112;11.662;2023-03-31T15:17:24;0.50;;;0.50;;
31378;SDS011;61664;48.112;11.662;2023-03-31T15:19:56;0.40;;;0.32;;
31378;SDS011;61664;48.112;11.662;2023-03-31T15:22:30;0.75;;;0.50;;
31378;SDS011;61664;48.112;11.662;2023-03-31T15:24:56;0.30;;;0.30;;
31378;SDS011;61664;48.112;11.662;2023-03-31T15:27:34;2.30;;;0.50;;
31378;SDS011;61664;48.112;11.662;2023-03-31T15:30:07;1.35;;;0.52;;
31378;SDS011;61664;48.112;11.662;2023-03-31T15:32:42;0.40;;;0.32;;
31378;SDS011;61664;48.112;11.662;2023-03-31T15:35:19;0.38;;;0.30;;
31378;SDS011;61664;48.112;11.662;2023-03-31T15:37:56;0.43;;;0.40;;
31378;SDS011;61664;48.112;11.662;2023-03-31T15:40:29;1.43;;;0.23;;
31378;SDS011;61664;48.112;11.662;2023-03-31T15:43:05;1.55;;;0.68;;
31378;SDS011;61664;48.112;11.662;2023-03-31T15:48:31;1.13;;;0.45;;
31378;SDS011;61664;48.112;11.662;2023-03-31T15:51:15;0.95;;;0.60;;
31378;SDS011;61664;48.112;11.662;2023-03-31T15:53:50;1.02;;;0.50;;
31378;SDS011;61664;48.112;11.662;2023-03-31T15:59:22;4.43;;;1.30;;
31378;SDS011;61664;48.112;11.662;2023-03-31T16:02:03;1.30;;;0.70;;
31378;SDS011;61664;48.112;11.662;2023-03-31T16:04:31;1.90;;;1.05;;
31378;SDS011;61664;48.112;11.662;2023-03-31T16:07:01;1.75;;;1.00;;
31378;SDS011;61664;48.112;11.662;2023-03-31T16:09:41;2.00;;;0.80;;
31378;SDS011;61664;48.112;11.662;2023-03-31T16:12:24;1.25;;;0.50;;
31378;SDS011;61664;48.112;11.662;2023-03-31T16:15:07;1.27;;;0.70;;
31378;SDS011;61664;48.112;11.662;2023-03-31T16:17:46;1.75;;;0.70;;
31378;SDS011;61664;48.112;11.662;2023-03-31T16:20:27;0.55;;;0.40;;
31378;SDS011;61664;48.112;11.662;2023-03-31T16:23:38;0.50;;;0.40;;
31378;SDS011;61664;48.112;11.662;2023-03-31T16:26:03;1.23;;;0.60;;
31378;SDS011;61664;48.112;11.662;2023-03-31T16:28:35;0.50;;;0.40;;
31378;SDS011;61664;48.112;11.662;2023-03-31T16:31:04;1.08;;;0.68;;
31378;SDS011;61664;48.112;11.662;2023-03-31T16:34:00;1.10;;;0.60;;
31378;SDS011;61664;48.112;11.662;2023-03-31T16:36:30;1.40;;;0.65;;
31378;SDS011;61664;48.112;11.662;2023-03-31T16:38:57;2.05;;;0.88;;
31378;SDS011;61664;48.112;11.662;2023-03-31T16:41:27;1.40;;;0.80;;
31378;SDS011;61664;48.112;11.662;2023-03-31T16:43:55;1.77;;;0.95;;
31378;SDS011;61664;48.112;11.662;2023-03-31T16:46:22;0.88;;;0.65;;
31378;SDS011;61664;48.112;11.662;2023-03-31T16:48:50;0.63;;;0.60;;
31378;SDS011;61664;48.112;11.662;2023-03-31T16:51:18;1.95;;;1.20;;
31378;SDS011;61664;48.112;11.662;2023-03-31T16:53:46;0.77;;;0.65;;
31378;SDS011;61664;48.112;11.662;2023-03-31T16:56:13;1.05;;;0.57;;
31378;SDS011;61664;48.112;11.662;2023-03-31T16:58:41;1.42;;;0.70;;
31378;SDS011;61664;48.112;11.662;2023-03-31T17:01:08;2.13;;;0.80;;
31378;SDS011;61664;48.112;11.662;2023-03-31T17:03:37;3.53;;;0.88;;
31378;SDS011;61664;48.112;11.662;2023-03-31T17:06:08;0.85;;;0.70;;
31378;SDS011;61664;48.112;11.662;2023-03-31T17:08:37;0.88;;;0.88;;
31378;SDS011;61664;48.112;11.662;2023-03-31T17:11:06;1.52;;;0.93;;
31378;SDS011;61664;48.112;11.662;2023-03-31T17:13:37;0.65;;;0.60;;
31378;SDS011;61664;48.112;11.662;2023-03-31T17:16:07;1.17;;;0.70;;
31378;SDS011;61664;48.112;11.662;2023-03-31T17:18:51;1.27;;;0.40;;
31378;SDS011;61664;48.112;11.662;2023-03-31T17:21:19;0.68;;;0.57;;
31378;SDS011;61664;48.112;11.662;2023-03-31T17:23:47;0.55;;;0.38;;
31378;SDS011;61664;48.112;11.662;2023-03-31T17:26:15;0.43;;;0.30;;
31378;SDS011;61664;48.112;11.662;2023-03-31T17:28:43;0.88;;;0.40;;
31378;SDS011;61664;48.112;11.662;2023-03-31T17:31:17;1.20;;;0.43;;
31378;SDS011;61664;48.112;11.662;2023-03-31T17:33:46;0.65;;;0.52;;
31378;SDS011;61664;48.112;11.662;2023-03-31T17:36:13;1.33;;;1.23;;
31378;SDS011;61664;48.112;11.662;2023-03-31T17:38:40;5.65;;;2.50;;
31378;SDS011;61664;48.112;11.662;2023-03-31T17:41:08;3.20;;;1.67;;
31378;SDS011;61664;48.112;11.662;2023-03-31T17:43:38;2.78;;;1.30;;
31378;SDS011;61664;48.112;11.662;2023-03-31T17:46:09;4.43;;;2.03;;
31378;SDS011;61664;48.112;11.662;2023-03-31T17:48:38;4.75;;;1.92;;
31378;SDS011;61664;48.112;11.662;2023-03-31T17:51:07;1.70;;;0.90;;
31378;SDS011;61664;48.112;11.662;2023-03-31T17:53:42;0.82;;;0.45;;
31378;SDS011;61664;48.112;11.662;2023-03-31T17:56:12;0.63;;;0.40;;
31378;SDS011;61664;48.112;11.662;2023-03-31T17:58:40;0.43;;;0.20;;
31378;SDS011;61664;48.112;11.662;2023-03-31T18:01:11;0.30;;;0.30;;
31378;SDS011;61664;48.112;11.662;2023-03-31T18:03:41;0.70;;;0.30;;
31378;SDS011;61664;48.112;11.662;2023-03-31T18:06:11;0.70;;;0.40;;